sensor_id;sensor_type;location;lat;lon;timestamp;pressure;altitude;pressure_sealevel;temperature;humidity
22333;BME280;11334;36.986;-121.936;2023-02-03T00:01:41;101960.28;;;17.87;38.59
22333;BME280;11334;36.986;-121.936;2023-02-03T00:04:07;101976.84;;;17.90;40.04
22333;BME280;11334;36.986;-121.936;2023-02-03T00:06:34;101978.38;;;17.85;40.67
22333;BME280;11334;36.986;-121.936;2023-02-03T00:09:00;101977.88;;;17.81;41.52
22333;BME280;11334;36.986;-121.936;2023-02-03T00:11:29;101973.53;;;17.80;41.94
22333;BME280;11334;36.986;-121.936;2023-02-03T00:13:55;101972.69;;;17.80;43.16
22333;BME280;11334;36.986;-121.936;2023-02-03T00:16:21;101967.69;;;17.77;43.38
22333;BME280;11334;36.986;-121.936;2023-02-03T00:18:48;101976.91;;;17.74;44.05
22333;BME280;11334;36.986;-121.936;2023-02-03T00:21:14;101939.75;;;17.56;44.95
22333;BME280;11334;36.986;-121.936;2023-02-03T00:23:41;101966.50;;;17.71;45.26
22333;BME280;11334;36.986;-121.936;2023-02-03T00:26:13;101968.69;;;17.68;46.51
22333;BME280;11334;36.986;-121.936;2023-02-03T00:28:39;101961.84;;;17.66;46.18
22333;BME280;11334;36.986;-121.936;2023-02-03T00:31:17;101966.75;;;17.46;46.31
22333;BME280;11334;36.986;-121.936;2023-02-03T00:33:44;101965.56;;;17.49;46.99
22333;BME280;11334;36.986;-121.936;2023-02-03T00:36:10;101977.78;;;17.51;47.21
22333;BME280;11334;36.986;-121.936;2023-02-03T00:38:37;101945.00;;;17.34;47.91
22333;BME280;11334;36.986;-121.936;2023-02-03T00:41:03;101960.59;;;17.38;47.54
22333;BME280;11334;36.986;-121.936;2023-02-03T00:43:29;101978.84;;;17.42;48.01
22333;BME280;11334;36.986;-121.936;2023-02-03T00:45:56;101974.47;;;17.34;48.72
22333;BME280;11334;36.986;-121.936;2023-02-03T00:48:22;101965.78;;;17.32;46.96
22333;BME280;11334;36.986;-121.936;2023-02-03T00:50:48;101954.59;;;17.20;46.84
22333;BME280;11334;36.986;-121.936;2023-02-03T00:53:15;101950.06;;;17.13;46.73
22333;BME280;11334;36.986;-121.936;2023-02-03T00:55:44;101947.53;;;17.04;45.11
22333;BME280;11334;36.986;-121.936;2023-02-03T00:58:10;101951.88;;;16.97;44.70
22333;BME280;11334;36.986;-121.936;2023-02-03T01:00:36;101962.78;;;16.95;44.89
22333;BME280;11334;36.986;-121.936;2023-02-03T01:03:03;101964.78;;;16.85;45.51
22333;BME280;11334;36.986;-121.936;2023-02-03T01:05:30;101951.06;;;16.80;45.46
22333;BME280;11334;36.986;-121.936;2023-02-03T01:07:56;101950.22;;;16.72;43.76
22333;BME280;11334;36.986;-121.936;2023-02-03T01:10:22;101947.53;;;16.64;44.00
22333;BME280;11334;36.986;-121.936;2023-02-03T01:12:48;101942.66;;;16.68;43.93
22333;BME280;11334;36.986;-121.936;2023-02-03T01:15:15;101938.00;;;16.62;44.43
22333;BME280;11334;36.986;-121.936;2023-02-03T01:17:41;101934.81;;;16.58;44.05
22333;BME280;11334;36.986;-121.936;2023-02-03T01:20:08;101922.63;;;16.56;43.36
22333;BME280;11334;36.986;-121.936;2023-02-03T01:22:37;101923.78;;;16.53;43.29
22333;BME280;11334;36.986;-121.936;2023-02-03T01:25:03;101922.78;;;16.46;42.23
22333;BME280;11334;36.986;-121.936;2023-02-03T01:27:31;101930.59;;;16.48;41.85
22333;BME280;11334;36.986;-121.936;2023-02-03T01:29:57;101930.59;;;16.40;41.85
22333;BME280;11334;36.986;-121.936;2023-02-03T01:32:24;101923.06;;;16.28;42.16
22333;BME280;11334;36.986;-121.936;2023-02-03T01:34:50;101921.75;;;16.32;42.31
22333;BME280;11334;36.986;-121.936;2023-02-03T01:37:16;101920.38;;;16.28;42.49
22333;BME280;11334;36.986;-121.936;2023-02-03T01:39:43;101922.91;;;16.21;41.59
22333;BME280;11334;36.986;-121.936;2023-02-03T01:42:14;101909.69;;;16.20;42.21
22333;BME280;11334;36.986;-121.936;2023-02-03T01:47:31;101923.53;;;16.15;42.92
22333;BME280;11334;36.986;-121.936;2023-02-03T01:50:08;101924.31;;;16.08;43.15
22333;BME280;11334;36.986;-121.936;2023-02-03T01:52:38;101920.13;;;16.06;43.72
22333;BME280;11334;36.986;-121.936;2023-02-03T01:55:08;101929.84;;;16.07;43.67
22333;BME280;11334;36.986;-121.936;2023-02-03T01:57:49;101923.81;;;15.97;43.48
22333;BME280;11334;36.986;-121.936;2023-02-03T02:00:16;101945.88;;;15.99;43.86
22333;BME280;11334;36.986;-121.936;2023-02-03T02:02:44;101939.16;;;15.95;44.09
22333;BME280;11334;36.986;-121.936;2023-02-03T02:07:47;101937.66;;;15.92;43.79
22333;BME280;11334;36.986;-121.936;2023-02-03T02:10:13;101946.13;;;15.88;44.58
22333;BME280;11334;36.986;-121.936;2023-02-03T02:12:39;101945.47;;;15.86;44.45
22333;BME280;11334;36.986;-121.936;2023-02-03T02:15:06;101942.13;;;15.84;44.84
22333;BME280;11334;36.986;-121.936;2023-02-03T02:25:31;101924.16;;;15.69;45.73
22333;BME280;11334;36.986;-121.936;2023-02-03T02:34:07;101934.81;;;15.61;45.11
22333;BME280;11334;36.986;-121.936;2023-02-03T02:39:28;101940.00;;;15.54;45.73
22333;BME280;11334;36.986;-121.936;2023-02-03T02:42:27;101908.53;;;15.41;45.71
22333;BME280;11334;36.986;-121.936;2023-02-03T02:47:34;101924.09;;;15.53;45.63
22333;BME280;11334;36.986;-121.936;2023-02-03T02:50:18;101917.22;;;15.43;46.50
22333;BME280;11334;36.986;-121.936;2023-02-03T02:52:48;101913.28;;;15.29;46.60
22333;BME280;11334;36.986;-121.936;2023-02-03T02:55:20;101925.97;;;15.27;46.12
22333;BME280;11334;36.986;-121.936;2023-02-03T02:57:51;101915.75;;;15.23;46.87
22333;BME280;11334;36.986;-121.936;2023-02-03T03:00:19;101916.91;;;15.20;46.43
22333;BME280;11334;36.986;-121.936;2023-02-03T03:02:45;101915.53;;;15.17;46.99
22333;BME280;11334;36.986;-121.936;2023-02-03T03:05:12;101903.28;;;15.06;47.10
22333;BME280;11334;36.986;-121.936;2023-02-03T03:08:00;101901.06;;;15.02;47.74
22333;BME280;11334;36.986;-121.936;2023-02-03T03:10:30;101913.25;;;15.04;47.88
22333;BME280;11334;36.986;-121.936;2023-02-03T03:13:19;101907.03;;;14.96;48.02
22333;BME280;11334;36.986;-121.936;2023-02-03T03:15:48;101920.84;;;14.91;48.95
22333;BME280;11334;36.986;-121.936;2023-02-03T03:18:27;101912.66;;;14.85;49.38
22333;BME280;11334;36.986;-121.936;2023-02-03T03:20:56;101922.25;;;14.78;49.38
22333;BME280;11334;36.986;-121.936;2023-02-03T03:23:39;101908.22;;;14.76;49.67
22333;BME280;11334;36.986;-121.936;2023-02-03T03:26:29;101906.69;;;14.74;49.47
22333;BME280;11334;36.986;-121.936;2023-02-03T03:29:41;101910.09;;;14.58;50.52
22333;BME280;11334;36.986;-121.936;2023-02-03T03:32:06;101895.44;;;14.45;50.53
22333;BME280;11334;36.986;-121.936;2023-02-03T03:34:32;101901.38;;;14.56;50.56
22333;BME280;11334;36.986;-121.936;2023-02-03T03:37:20;101907.63;;;14.48;50.77
22333;BME280;11334;36.986;-121.936;2023-02-03T03:40:06;101899.47;;;14.66;49.85
22333;BME280;11334;36.986;-121.936;2023-02-03T03:45:21;101907.34;;;14.51;50.24
22333;BME280;11334;36.986;-121.936;2023-02-03T03:50:33;101899.50;;;14.32;51.54
22333;BME280;11334;36.986;-121.936;2023-02-03T03:53:03;101900.31;;;14.32;51.25
22333;BME280;11334;36.986;-121.936;2023-02-03T03:55:32;101903.81;;;14.33;50.98
22333;BME280;11334;36.986;-121.936;2023-02-03T03:58:06;101893.78;;;14.27;51.01
22333;BME280;11334;36.986;-121.936;2023-02-03T04:00:36;101898.66;;;14.31;49.46
22333;BME280;11334;36.986;-121.936;2023-02-03T04:03:12;101905.19;;;14.20;50.90
22333;BME280;11334;36.986;-121.936;2023-02-03T04:05:41;101916.25;;;14.24;50.92
22333;BME280;11334;36.986;-121.936;2023-02-03T04:08:07;101919.38;;;14.20;51.26
22333;BME280;11334;36.986;-121.936;2023-02-03T04:10:39;101913.66;;;14.15;51.90
22333;BME280;11334;36.986;-121.936;2023-02-03T04:13:07;101910.91;;;14.07;51.89
22333;BME280;11334;36.986;-121.936;2023-02-03T04:15:34;101912.88;;;14.05;52.22
22333;BME280;11334;36.986;-121.936;2023-02-03T04:18:01;101923.41;;;14.07;52.10
22333;BME280;11334;36.986;-121.936;2023-02-03T04:20:29;101919.22;;;14.04;52.51
22333;BME280;11334;36.986;-121.936;2023-02-03T04:22:56;101908.69;;;14.03;52.84
22333;BME280;11334;36.986;-121.936;2023-02-03T04:25:22;101905.19;;;14.02;52.64
22333;BME280;11334;36.986;-121.936;2023-02-03T04:27:49;101904.06;;;13.95;52.49
22333;BME280;11334;36.986;-121.936;2023-02-03T04:30:16;101904.38;;;13.92;52.45
22333;BME280;11334;36.986;-121.936;2023-02-03T04:32:44;101903.84;;;13.89;52.63
22333;BME280;11334;36.986;-121.936;2023-02-03T04:35:11;101915.47;;;13.88;53.20
22333;BME280;11334;36.986;-121.936;2023-02-03T04:37:38;101912.41;;;13.83;52.71
22333;BME280;11334;36.986;-121.936;2023-02-03T04:40:05;101912.28;;;13.85;52.32
22333;BME280;11334;36.986;-121.936;2023-02-03T04:42:32;101891.63;;;13.69;52.52
22333;BME280;11334;36.986;-121.936;2023-02-03T04:44:58;101912.38;;;13.66;53.99
22333;BME280;11334;36.986;-121.936;2023-02-03T04:47:25;101906.38;;;13.64;54.01
22333;BME280;11334;36.986;-121.936;2023-02-03T04:49:51;101897.41;;;13.65;53.46
22333;BME280;11334;36.986;-121.936;2023-02-03T04:52:17;101899.06;;;13.66;53.58
22333;BME280;11334;36.986;-121.936;2023-02-03T04:54:44;101892.41;;;13.53;54.10
22333;BME280;11334;36.986;-121.936;2023-02-03T04:57:10;101904.28;;;13.58;53.56
22333;BME280;11334;36.986;-121.936;2023-02-03T04:59:36;101902.31;;;13.60;53.53
22333;BME280;11334;36.986;-121.936;2023-02-03T05:02:03;101897.13;;;13.58;53.62
22333;BME280;11334;36.986;-121.936;2023-02-03T05:04:30;101897.44;;;13.56;54.31
22333;BME280;11334;36.986;-121.936;2023-02-03T05:06:56;101908.00;;;13.48;55.04
22333;BME280;11334;36.986;-121.936;2023-02-03T05:09:24;101906.72;;;13.52;53.94
22333;BME280;11334;36.986;-121.936;2023-02-03T05:11:50;101906.84;;;13.50;53.89
22333;BME280;11334;36.986;-121.936;2023-02-03T05:14:17;101880.13;;;13.42;54.26
22333;BME280;11334;36.986;-121.936;2023-02-03T05:16:44;101890.09;;;13.40;54.25
22333;BME280;11334;36.986;-121.936;2023-02-03T05:19:10;101893.47;;;13.33;54.42
22333;BME280;11334;36.986;-121.936;2023-02-03T05:21:37;101887.47;;;13.31;54.63
22333;BME280;11334;36.986;-121.936;2023-02-03T05:24:04;101893.50;;;13.24;54.95
22333;BME280;11334;36.986;-121.936;2023-02-03T05:26:33;101886.09;;;13.27;53.91
22333;BME280;11334;36.986;-121.936;2023-02-03T05:29:00;101889.19;;;13.23;54.70
22333;BME280;11334;36.986;-121.936;2023-02-03T05:31:27;101875.91;;;13.13;54.34
22333;BME280;11334;36.986;-121.936;2023-02-03T05:33:53;101881.22;;;13.13;54.72
22333;BME280;11334;36.986;-121.936;2023-02-03T05:36:19;101884.47;;;13.07;55.43
22333;BME280;11334;36.986;-121.936;2023-02-03T05:38:46;101894.53;;;13.13;54.97
22333;BME280;11334;36.986;-121.936;2023-02-03T05:41:12;101892.31;;;13.09;55.21
22333;BME280;11334;36.986;-121.936;2023-02-03T05:43:57;101886.44;;;13.05;55.04
22333;BME280;11334;36.986;-121.936;2023-02-03T05:46:23;101883.91;;;13.04;55.34
22333;BME280;11334;36.986;-121.936;2023-02-03T05:48:49;101887.00;;;12.99;55.51
22333;BME280;11334;36.986;-121.936;2023-02-03T05:51:16;101888.69;;;13.00;54.88
22333;BME280;11334;36.986;-121.936;2023-02-03T05:53:42;101880.56;;;13.02;54.33
22333;BME280;11334;36.986;-121.936;2023-02-03T05:56:08;101893.31;;;12.98;54.72
22333;BME280;11334;36.986;-121.936;2023-02-03T05:58:35;101887.47;;;12.95;53.66
22333;BME280;11334;36.986;-121.936;2023-02-03T06:01:01;101876.34;;;12.99;54.02
22333;BME280;11334;36.986;-121.936;2023-02-03T06:03:27;101869.66;;;12.95;54.59
22333;BME280;11334;36.986;-121.936;2023-02-03T06:05:53;101868.56;;;12.89;55.06
22333;BME280;11334;36.986;-121.936;2023-02-03T06:08:20;101862.25;;;12.90;54.43
22333;BME280;11334;36.986;-121.936;2023-02-03T06:10:46;101872.34;;;12.95;53.47
22333;BME280;11334;36.986;-121.936;2023-02-03T06:13:14;101859.19;;;12.85;53.64
22333;BME280;11334;36.986;-121.936;2023-02-03T06:15:41;101874.72;;;12.89;53.90
22333;BME280;11334;36.986;-121.936;2023-02-03T06:18:08;101877.25;;;12.91;53.97
22333;BME280;11334;36.986;-121.936;2023-02-03T06:20:34;101856.13;;;12.80;54.23
22333;BME280;11334;36.986;-121.936;2023-02-03T06:23:00;101882.41;;;12.92;54.52
22333;BME280;11334;36.986;-121.936;2023-02-03T06:25:27;101878.38;;;12.88;54.54
22333;BME280;11334;36.986;-121.936;2023-02-03T06:27:53;101878.09;;;12.82;54.48
22333;BME280;11334;36.986;-121.936;2023-02-03T06:30:22;101873.75;;;12.81;54.62
22333;BME280;11334;36.986;-121.936;2023-02-03T06:32:48;101864.25;;;12.78;54.18
22333;BME280;11334;36.986;-121.936;2023-02-03T06:35:15;101875.13;;;12.85;53.67
22333;BME280;11334;36.986;-121.936;2023-02-03T06:37:41;101880.03;;;12.80;53.44
22333;BME280;11334;36.986;-121.936;2023-02-03T06:40:09;101865.63;;;12.73;53.97
22333;BME280;11334;36.986;-121.936;2023-02-03T06:42:35;101876.84;;;12.76;54.05
22333;BME280;11334;36.986;-121.936;2023-02-03T06:45:02;101885.66;;;12.77;53.97
22333;BME280;11334;36.986;-121.936;2023-02-03T06:47:28;101874.34;;;12.65;54.56
22333;BME280;11334;36.986;-121.936;2023-02-03T06:49:54;101891.53;;;12.71;55.04
22333;BME280;11334;36.986;-121.936;2023-02-03T06:52:20;101900.88;;;12.75;54.57
22333;BME280;11334;36.986;-121.936;2023-02-03T06:54:47;101886.50;;;12.68;54.71
22333;BME280;11334;36.986;-121.936;2023-02-03T06:57:13;101903.28;;;12.68;55.51
22333;BME280;11334;36.986;-121.936;2023-02-03T06:59:39;101907.34;;;12.63;55.38
22333;BME280;11334;36.986;-121.936;2023-02-03T07:02:05;101910.00;;;12.63;54.67
22333;BME280;11334;36.986;-121.936;2023-02-03T07:04:31;101912.97;;;12.60;55.18
22333;BME280;11334;36.986;-121.936;2023-02-03T07:06:58;101908.06;;;12.56;55.15
22333;BME280;11334;36.986;-121.936;2023-02-03T07:09:24;101907.06;;;12.57;55.46
22333;BME280;11334;36.986;-121.936;2023-02-03T07:11:50;101909.31;;;12.52;55.73
22333;BME280;11334;36.986;-121.936;2023-02-03T07:14:16;101910.84;;;12.54;55.09
22333;BME280;11334;36.986;-121.936;2023-02-03T07:16:43;101899.53;;;12.43;54.58
22333;BME280;11334;36.986;-121.936;2023-02-03T07:19:09;101919.81;;;12.53;56.30
22333;BME280;11334;36.986;-121.936;2023-02-03T07:21:36;101918.81;;;12.54;55.18
22333;BME280;11334;36.986;-121.936;2023-02-03T07:24:02;101922.06;;;12.48;55.56
22333;BME280;11334;36.986;-121.936;2023-02-03T07:26:28;101930.88;;;12.49;55.25
22333;BME280;11334;36.986;-121.936;2023-02-03T07:28:55;101936.06;;;12.50;55.59
22333;BME280;11334;36.986;-121.936;2023-02-03T07:31:23;101927.91;;;12.52;55.03
22333;BME280;11334;36.986;-121.936;2023-02-03T07:33:49;101943.59;;;12.55;53.31
22333;BME280;11334;36.986;-121.936;2023-02-03T07:36:15;101938.25;;;12.55;53.15
22333;BME280;11334;36.986;-121.936;2023-02-03T07:38:41;101911.13;;;12.32;55.67
22333;BME280;11334;36.986;-121.936;2023-02-03T07:41:08;101935.63;;;12.36;56.11
22333;BME280;11334;36.986;-121.936;2023-02-03T07:43:34;101938.69;;;12.31;55.97
22333;BME280;11334;36.986;-121.936;2023-02-03T07:46:01;101953.53;;;12.43;55.66
22333;BME280;11334;36.986;-121.936;2023-02-03T07:48:27;101953.81;;;12.40;55.42
22333;BME280;11334;36.986;-121.936;2023-02-03T07:50:53;101967.22;;;12.39;55.71
22333;BME280;11334;36.986;-121.936;2023-02-03T07:53:19;101975.75;;;12.42;55.30
22333;BME280;11334;36.986;-121.936;2023-02-03T07:55:46;101971.00;;;12.36;56.75
22333;BME280;11334;36.986;-121.936;2023-02-03T07:58:12;101971.81;;;12.28;57.00
22333;BME280;11334;36.986;-121.936;2023-02-03T08:00:39;101963.84;;;12.28;56.79
22333;BME280;11334;36.986;-121.936;2023-02-03T08:03:05;101969.16;;;12.18;57.27
22333;BME280;11334;36.986;-121.936;2023-02-03T08:05:32;101976.28;;;12.18;57.11
22333;BME280;11334;36.986;-121.936;2023-02-03T08:07:58;101961.72;;;12.12;57.11
22333;BME280;11334;36.986;-121.936;2023-02-03T08:10:24;101956.13;;;12.15;56.19
22333;BME280;11334;36.986;-121.936;2023-02-03T08:12:54;101961.44;;;12.15;56.02
22333;BME280;11334;36.986;-121.936;2023-02-03T08:15:21;101957.25;;;12.13;56.12
22333;BME280;11334;36.986;-121.936;2023-02-03T08:17:51;101960.63;;;12.15;56.04
22333;BME280;11334;36.986;-121.936;2023-02-03T08:20:17;101961.59;;;12.14;55.77
22333;BME280;11334;36.986;-121.936;2023-02-03T08:22:44;101949.72;;;12.18;55.80
22333;BME280;11334;36.986;-121.936;2023-02-03T08:25:11;101908.03;;;12.09;55.90
22333;BME280;11334;36.986;-121.936;2023-02-03T08:27:37;101940.19;;;12.15;55.98
22333;BME280;11334;36.986;-121.936;2023-02-03T08:30:05;101945.66;;;12.14;55.49
22333;BME280;11334;36.986;-121.936;2023-02-03T08:32:32;101937.53;;;12.15;55.84
22333;BME280;11334;36.986;-121.936;2023-02-03T08:34:59;101932.81;;;12.19;54.95
22333;BME280;11334;36.986;-121.936;2023-02-03T08:37:25;101919.53;;;12.19;55.08
22333;BME280;11334;36.986;-121.936;2023-02-03T08:39:53;101929.44;;;12.17;54.74
22333;BME280;11334;36.986;-121.936;2023-02-03T08:42:19;101901.03;;;12.08;55.64
22333;BME280;11334;36.986;-121.936;2023-02-03T08:44:45;101914.63;;;12.14;55.48
22333;BME280;11334;36.986;-121.936;2023-02-03T08:47:13;101929.56;;;12.15;54.88
22333;BME280;11334;36.986;-121.936;2023-02-03T08:49:40;101890.97;;;12.02;55.33
22333;BME280;11334;36.986;-121.936;2023-02-03T08:52:09;101919.09;;;12.14;55.69
22333;BME280;11334;36.986;-121.936;2023-02-03T08:54:36;101907.47;;;12.05;56.24
22333;BME280;11334;36.986;-121.936;2023-02-03T08:57:02;101898.25;;;12.09;55.97
22333;BME280;11334;36.986;-121.936;2023-02-03T08:59:29;101891.69;;;12.04;55.96
22333;BME280;11334;36.986;-121.936;2023-02-03T09:01:55;101872.78;;;11.98;55.56
22333;BME280;11334;36.986;-121.936;2023-02-03T09:04:24;101877.69;;;12.02;55.45
22333;BME280;11334;36.986;-121.936;2023-02-03T09:06:52;101887.06;;;11.97;55.44
22333;BME280;11334;36.986;-121.936;2023-02-03T09:09:22;101889.31;;;12.01;53.91
22333;BME280;11334;36.986;-121.936;2023-02-03T09:11:48;101888.19;;;12.03;55.70
22333;BME280;11334;36.986;-121.936;2023-02-03T09:14:15;101887.78;;;11.99;56.23
22333;BME280;11334;36.986;-121.936;2023-02-03T09:16:41;101884.41;;;11.97;55.58
22333;BME280;11334;36.986;-121.936;2023-02-03T09:19:08;101881.59;;;12.07;53.82
22333;BME280;11334;36.986;-121.936;2023-02-03T09:21:34;101868.31;;;11.98;55.70
22333;BME280;11334;36.986;-121.936;2023-02-03T09:24:01;101876.56;;;11.95;56.60
22333;BME280;11334;36.986;-121.936;2023-02-03T09:26:28;101868.44;;;11.87;56.26
22333;BME280;11334;36.986;-121.936;2023-02-03T09:28:54;101888.16;;;11.85;55.81
22333;BME280;11334;36.986;-121.936;2023-02-03T09:31:20;101880.59;;;11.80;56.18
22333;BME280;11334;36.986;-121.936;2023-02-03T09:33:47;101880.19;;;11.85;55.97
22333;BME280;11334;36.986;-121.936;2023-02-03T09:36:13;101864.13;;;11.86;55.18
22333;BME280;11334;36.986;-121.936;2023-02-03T09:38:39;101867.63;;;11.87;55.70
22333;BME280;11334;36.986;-121.936;2023-02-03T09:46:53;101878.09;;;11.79;55.13
22333;BME280;11334;36.986;-121.936;2023-02-03T09:49:35;101883.66;;;11.76;55.34
22333;BME280;11334;36.986;-121.936;2023-02-03T09:55:03;101888.09;;;11.66;55.93
22333;BME280;11334;36.986;-121.936;2023-02-03T09:57:36;101881.53;;;11.61;55.63
22333;BME280;11334;36.986;-121.936;2023-02-03T10:00:18;101892.97;;;11.61;57.00
22333;BME280;11334;36.986;-121.936;2023-02-03T10:03:07;101892.28;;;11.59;56.17
22333;BME280;11334;36.986;-121.936;2023-02-03T10:06:15;101883.75;;;11.56;56.26
22333;BME280;11334;36.986;-121.936;2023-02-03T10:09:29;101888.59;;;11.51;56.39
22333;BME280;11334;36.986;-121.936;2023-02-03T10:15:33;101883.56;;;11.48;55.75
22333;BME280;11334;36.986;-121.936;2023-02-03T10:17:56;101885.25;;;11.49;56.15
22333;BME280;11334;36.986;-121.936;2023-02-03T10:20:48;101871.69;;;11.42;56.33
22333;BME280;11334;36.986;-121.936;2023-02-03T10:23:28;101845.66;;;11.27;55.91
22333;BME280;11334;36.986;-121.936;2023-02-03T10:25:56;101865.41;;;11.43;55.83
22333;BME280;11334;36.986;-121.936;2023-02-03T10:28:38;101844.81;;;11.36;54.92
22333;BME280;11334;36.986;-121.936;2023-02-03T10:31:25;101871.97;;;11.49;55.65
22333;BME280;11334;36.986;-121.936;2023-02-03T10:36:56;101872.41;;;11.44;55.44
22333;BME280;11334;36.986;-121.936;2023-02-03T10:39:42;101856.91;;;11.49;55.22
22333;BME280;11334;36.986;-121.936;2023-02-03T10:42:10;101858.16;;;11.45;55.56
22333;BME280;11334;36.986;-121.936;2023-02-03T10:44:59;101860.94;;;11.44;56.31
22333;BME280;11334;36.986;-121.936;2023-02-03T10:47:35;101852.13;;;11.43;55.96
22333;BME280;11334;36.986;-121.936;2023-02-03T10:50:08;101840.09;;;11.39;56.80
22333;BME280;11334;36.986;-121.936;2023-02-03T10:52:38;101838.56;;;11.37;57.13
22333;BME280;11334;36.986;-121.936;2023-02-03T10:55:28;101827.34;;;11.34;56.93
22333;BME280;11334;36.986;-121.936;2023-02-03T10:57:56;101828.03;;;11.26;57.58
22333;BME280;11334;36.986;-121.936;2023-02-03T11:00:28;101796.00;;;11.09;56.53
22333;BME280;11334;36.986;-121.936;2023-02-03T11:03:15;101824.28;;;11.29;56.25
22333;BME280;11334;36.986;-121.936;2023-02-03T11:05:46;101820.06;;;11.26;55.80
22333;BME280;11334;36.986;-121.936;2023-02-03T11:08:14;101820.50;;;11.31;55.49
22333;BME280;11334;36.986;-121.936;2023-02-03T11:10:41;101826.81;;;11.30;55.49
22333;BME280;11334;36.986;-121.936;2023-02-03T11:13:24;101819.97;;;11.37;54.23
22333;BME280;11334;36.986;-121.936;2023-02-03T11:16:05;101820.94;;;11.36;54.81
22333;BME280;11334;36.986;-121.936;2023-02-03T11:18:50;101790.88;;;11.17;56.27
22333;BME280;11334;36.986;-121.936;2023-02-03T11:23:50;101806.81;;;11.26;55.57
22333;BME280;11334;36.986;-121.936;2023-02-03T11:26:30;101805.97;;;11.26;56.07
22333;BME280;11334;36.986;-121.936;2023-02-03T11:29:00;101806.69;;;11.28;55.43
22333;BME280;11334;36.986;-121.936;2023-02-03T11:31:34;101812.97;;;11.36;55.26
22333;BME280;11334;36.986;-121.936;2023-02-03T11:34:06;101824.19;;;11.39;55.75
22333;BME280;11334;36.986;-121.936;2023-02-03T11:36:40;101827.34;;;11.34;55.82
22333;BME280;11334;36.986;-121.936;2023-02-03T11:41:37;101823.16;;;11.31;56.45
22333;BME280;11334;36.986;-121.936;2023-02-03T11:44:28;101827.78;;;11.29;56.22
22333;BME280;11334;36.986;-121.936;2023-02-03T11:47:22;101831.38;;;11.28;56.70
22333;BME280;11334;36.986;-121.936;2023-02-03T11:50:06;101827.78;;;11.29;57.15
22333;BME280;11334;36.986;-121.936;2023-02-03T11:55:29;101826.91;;;11.29;56.75
22333;BME280;11334;36.986;-121.936;2023-02-03T12:01:14;101842.16;;;11.36;54.95
22333;BME280;11334;36.986;-121.936;2023-02-03T12:17:44;101832.94;;;11.31;56.48
22333;BME280;11334;36.986;-121.936;2023-02-03T12:20:49;101831.81;;;11.33;56.68
22333;BME280;11334;36.986;-121.936;2023-02-03T12:23:39;101831.28;;;11.30;56.69
22333;BME280;11334;36.986;-121.936;2023-02-03T12:28:55;101831.81;;;11.33;56.56
22333;BME280;11334;36.986;-121.936;2023-02-03T12:34:16;101832.66;;;11.34;56.44
22333;BME280;11334;36.986;-121.936;2023-02-03T12:37:05;101833.53;;;11.34;56.10
22333;BME280;11334;36.986;-121.936;2023-02-03T12:45:01;101840.06;;;11.30;56.43
22333;BME280;11334;36.986;-121.936;2023-02-03T12:47:30;101834.75;;;11.30;56.51
22333;BME280;11334;36.986;-121.936;2023-02-03T12:50:32;101829.72;;;11.27;57.32
22333;BME280;11334;36.986;-121.936;2023-02-03T12:53:02;101828.19;;;11.25;58.10
22333;BME280;11334;36.986;-121.936;2023-02-03T12:58:04;101847.31;;;11.28;55.47
22333;BME280;11334;36.986;-121.936;2023-02-03T13:12:27;101871.56;;;11.53;54.84
22333;BME280;11334;36.986;-121.936;2023-02-03T13:20:25;101895.09;;;11.67;60.68
22333;BME280;11334;36.986;-121.936;2023-02-03T13:22:53;101899.81;;;11.64;61.69
22333;BME280;11334;36.986;-121.936;2023-02-03T13:25:30;101896.50;;;11.62;63.47
22333;BME280;11334;36.986;-121.936;2023-02-03T13:28:17;101893.41;;;11.57;66.58
22333;BME280;11334;36.986;-121.936;2023-02-03T13:36:49;101896.66;;;11.40;71.73
22333;BME280;11334;36.986;-121.936;2023-02-03T13:41:55;101893.28;;;11.38;72.71
22333;BME280;11334;36.986;-121.936;2023-02-03T13:44:32;101898.59;;;11.38;73.71
22333;BME280;11334;36.986;-121.936;2023-02-03T13:46:59;101910.19;;;11.37;75.22
22333;BME280;11334;36.986;-121.936;2023-02-03T13:49:29;101930.38;;;11.29;75.44
22333;BME280;11334;36.986;-121.936;2023-02-03T13:51:56;101927.34;;;11.33;76.92
22333;BME280;11334;36.986;-121.936;2023-02-03T13:54:36;101936.72;;;11.37;77.48
22333;BME280;11334;36.986;-121.936;2023-02-03T13:57:20;101925.78;;;11.31;78.34
22333;BME280;11334;36.986;-121.936;2023-02-03T13:59:47;101916.94;;;11.21;79.98
22333;BME280;11334;36.986;-121.936;2023-02-03T14:07:37;101919.75;;;11.19;82.57
22333;BME280;11334;36.986;-121.936;2023-02-03T14:17:57;101927.75;;;11.08;84.61
22333;BME280;11334;36.986;-121.936;2023-02-03T14:22:57;101921.81;;;11.16;85.64
22333;BME280;11334;36.986;-121.936;2023-02-03T14:25:26;101897.97;;;10.96;86.44
22333;BME280;11334;36.986;-121.936;2023-02-03T14:28:11;101935.59;;;11.10;87.17
22333;BME280;11334;36.986;-121.936;2023-02-03T14:36:33;101943.94;;;11.05;88.17
22333;BME280;11334;36.986;-121.936;2023-02-03T14:48:07;101946.94;;;11.12;89.11
22333;BME280;11334;36.986;-121.936;2023-02-03T14:56:26;101938.09;;;11.11;88.84
22333;BME280;11334;36.986;-121.936;2023-02-03T14:59:01;101922.66;;;10.96;89.10
22333;BME280;11334;36.986;-121.936;2023-02-03T15:04:21;101941.66;;;11.21;88.67
22333;BME280;11334;36.986;-121.936;2023-02-03T15:06:50;101950.31;;;11.23;89.17